Terminal Aerodrome Forecast
Issued by NWS

Home | Current Version | Previous Version | Text Only | Print | Product List | Glossary On
Versions: 1 2 3 4 5 6 7 8 9 10 11 12 13 14 15
000
FTUS42 KTAE 261100
TAFABY
TAF
KABY 261139Z 2612/2712 24003KT 6SM BR OVC006
     FM261400 26005KT P6SM SCT020
     FM261800 26007KT P6SM SCT040
     FM270000 23003KT P6SM SKC=

USA.gov is the U.S. government's official web portal to all federal, state and local government web resources and services.